createdAt,value
2023-01-25T06:00:10.500Z,4.53
2023-01-25T06:05:18.044Z,5.12
2023-01-25T06:10:22.269Z,3.97
2023-01-25T06:15:26.501Z,5.70
2023-01-25T06:20:32.499Z,4.37
2023-01-25T06:25:36.907Z,5.35
2023-01-25T06:30:40.528Z,4.32
2023-01-25T06:35:45.689Z,5.18
2023-01-25T06:40:49.908Z,5.87
2023-01-25T06:45:53.620Z,4.68
2023-01-25T06:51:00.596Z,5.68
2023-01-25T06:56:06.600Z,5.07
2023-01-25T07:01:14.806Z,5.18
2023-01-25T07:06:20.887Z,3.90
2023-01-25T07:11:24.633Z,4.65
2023-01-25T07:16:28.902Z,4.30
2023-01-25T07:26:38.323Z,5.60
2023-01-25T07:31:42.837Z,4.10
2023-01-25T07:36:48.106Z,5.22
2023-01-25T07:41:52.051Z,5.18
2023-01-25T07:46:56.403Z,5.97
2023-01-25T07:52:01.523Z,4.55
2023-01-25T07:57:05.672Z,5.25
2023-01-25T08:02:11.484Z,5.22
2023-01-25T08:07:16.683Z,4.97
2023-01-25T08:12:20.544Z,5.57
2023-01-25T08:17:24.203Z,4.95
2023-01-25T08:22:29.580Z,4.55
2023-01-25T08:27:33.533Z,5.50
2023-01-25T08:32:38.254Z,5.35
2023-01-25T08:37:43.314Z,5.10
2023-01-25T08:42:47.920Z,6.00
2023-01-25T08:47:51.734Z,4.80
2023-01-25T08:52:56.801Z,6.05
2023-01-25T08:58:00.779Z,5.20
2023-01-25T09:03:04.830Z,5.07
2023-01-25T09:08:11.783Z,4.45
2023-01-25T09:13:15.760Z,5.40
2023-01-25T09:18:19.503Z,6.45
2023-01-25T09:23:25.101Z,4.72
2023-01-25T09:28:30.024Z,4.97
2023-01-25T09:33:36.552Z,5.40
2023-01-25T09:38:41.590Z,5.62
2023-01-25T09:44:14.536Z,4.70
2023-01-25T09:49:30.777Z,4.93
2023-01-25T09:54:47.029Z,4.70
2023-01-25T09:59:52.684Z,5.93
2023-01-25T10:05:03.952Z,5.55
2023-01-25T10:10:18.556Z,5.53
2023-01-25T10:15:24.623Z,5.00
2023-01-25T10:20:37.108Z,5.15
2023-01-25T10:25:46.318Z,4.90
2023-01-25T10:30:57.928Z,4.50
2023-01-25T10:36:04.833Z,4.90
2023-01-25T10:41:15.105Z,5.95
2023-01-25T10:46:23.183Z,5.00
2023-01-25T10:51:31.892Z,5.72
2023-01-25T10:56:40.414Z,4.80
2023-01-25T11:01:44.548Z,5.47
2023-01-25T11:06:50.472Z,5.65
2023-01-25T11:11:57.946Z,5.32
2023-01-25T11:17:04.463Z,4.22
2023-01-25T11:22:24.122Z,6.35
2023-01-25T11:27:29.391Z,4.75
2023-01-25T11:32:34.025Z,4.87
2023-01-25T11:37:52.042Z,4.82
2023-01-25T11:43:08.208Z,5.72
2023-01-25T11:48:34.210Z,4.85
2023-01-25T11:54:02.333Z,6.30
2023-01-25T11:59:19.897Z,5.30
2023-01-25T12:04:43.467Z,5.45
2023-01-25T12:10:02.662Z,5.03
2023-01-25T12:15:31.311Z,5.12
2023-01-25T12:20:50.796Z,5.05
2023-01-25T12:26:12.078Z,4.87
2023-01-25T12:31:20.749Z,4.97
2023-01-25T12:36:29.764Z,6.37
2023-01-25T12:41:41.240Z,6.15
2023-01-25T12:46:53.998Z,4.68
2023-01-25T12:52:00.233Z,4.20
2023-01-25T12:57:12.878Z,4.43
2023-01-25T13:02:34.023Z,5.55
2023-01-25T13:07:44.335Z,5.90
2023-01-25T13:12:56.437Z,4.90
2023-01-25T13:18:01.456Z,4.53
2023-01-25T13:23:05.470Z,3.95
2023-01-25T13:28:42.639Z,4.25
2023-01-25T13:33:47.748Z,5.93
2023-01-25T13:38:51.770Z,5.55
2023-01-25T13:44:17.290Z,4.50
2023-01-25T13:49:32.076Z,4.43
2023-01-25T13:54:44.263Z,4.40
2023-01-25T13:59:49.618Z,4.37
2023-01-25T14:04:56.014Z,4.62
2023-01-25T14:10:00.307Z,5.72
2023-01-25T14:15:19.821Z,4.47
2023-01-25T14:20:25.365Z,3.97
2023-01-25T14:25:29.323Z,4.93
2023-01-25T14:30:34.822Z,3.75
2023-01-25T14:35:54.641Z,3.90
2023-01-25T14:41:04.534Z,4.30
2023-01-25T14:46:22.605Z,4.68
2023-01-25T14:51:30.880Z,3.75
2023-01-25T14:56:41.513Z,5.03
2023-01-25T15:01:45.543Z,4.82
2023-01-25T15:06:52.238Z,4.22
2023-01-25T15:12:01.107Z,5.20
2023-01-25T15:17:05.199Z,4.15
2023-01-25T15:22:10.570Z,3.67
2023-01-25T15:27:14.521Z,4.18
2023-01-25T15:32:22.806Z,3.75
2023-01-25T15:37:27.827Z,3.12
2023-01-25T15:42:32.732Z,3.70
2023-01-25T15:47:37.545Z,3.05
2023-01-25T15:52:42.571Z,4.43
2023-01-25T15:57:47.003Z,2.87
2023-01-25T16:02:51.086Z,3.45
2023-01-25T16:07:57.072Z,3.75
2023-01-25T16:13:02.622Z,3.30
2023-01-25T16:18:07.348Z,3.25
2023-01-25T16:23:12.980Z,3.10
2023-01-25T16:28:17.113Z,3.17
2023-01-25T16:33:24.246Z,3.87
2023-01-25T16:38:29.252Z,2.42
2023-01-25T16:43:44.065Z,3.65
2023-01-25T16:48:48.934Z,3.17
2023-01-25T16:53:56.580Z,4.05
2023-01-25T16:59:03.801Z,3.20
2023-01-25T17:04:07.939Z,3.37
2023-01-25T17:09:22.832Z,3.05
2023-01-25T17:14:27.514Z,3.60
2023-01-25T17:19:31.610Z,3.60
2023-01-25T17:24:37.409Z,3.55
2023-01-25T17:29:41.398Z,3.15
2023-01-25T17:34:45.383Z,3.92
2023-01-25T17:39:50.400Z,3.67
2023-01-25T17:44:54.336Z,3.45
2023-01-25T17:49:58.292Z,3.45
2023-01-25T17:55:03.867Z,3.72
2023-01-25T18:00:11.987Z,3.45
2023-01-25T18:05:16.779Z,2.92
2023-01-25T18:10:22.067Z,3.65
2023-01-25T18:15:26.016Z,2.78
2023-01-25T18:20:31.450Z,3.10
2023-01-25T18:25:37.958Z,2.97
2023-01-25T18:30:50.258Z,3.50
2023-01-25T18:35:54.312Z,3.17
2023-01-25T18:40:59.419Z,3.97
2023-01-25T18:46:03.703Z,3.53
2023-01-25T18:56:14.557Z,4.10
2023-01-25T19:01:19.950Z,3.97
2023-01-25T19:06:23.913Z,4.32
2023-01-25T19:11:29.126Z,3.92
2023-01-25T19:16:33.188Z,3.95
2023-01-25T19:21:37.399Z,4.05
2023-01-25T19:26:43.094Z,3.92
2023-01-25T19:31:47.126Z,3.95
2023-01-25T19:36:51.135Z,4.22
2023-01-25T19:41:56.323Z,4.60
2023-01-25T19:47:00.262Z,4.60
2023-01-25T19:52:04.329Z,4.50
2023-01-25T19:57:09.359Z,4.28
2023-01-25T20:02:13.680Z,4.18
2023-01-25T20:12:22.331Z,5.25
2023-01-25T20:17:26.321Z,6.03
2023-01-25T20:22:30.295Z,5.22
2023-01-25T20:27:35.379Z,4.37
2023-01-25T20:32:39.008Z,4.47
2023-01-25T20:37:43.210Z,3.97
2023-01-25T20:42:48.291Z,3.47
2023-01-25T20:47:52.298Z,3.95
2023-01-25T20:52:56.235Z,3.78
2023-01-25T20:58:01.323Z,4.37
2023-01-25T21:03:05.600Z,4.40
2023-01-25T21:08:09.207Z,4.15
2023-01-25T21:13:14.201Z,4.67
2023-01-25T21:18:18.113Z,4.50
2023-01-25T21:23:22.163Z,4.93
2023-01-25T21:28:27.486Z,4.18
2023-01-25T21:33:31.184Z,4.15
2023-01-25T21:38:35.017Z,5.70
2023-01-25T21:43:54.108Z,5.15
2023-01-25T21:49:16.650Z,3.70
2023-01-25T21:54:22.153Z,4.80
2023-01-25T21:59:27.898Z,5.22
2023-01-25T22:04:35.877Z,5.57
2023-01-25T22:09:39.840Z,5.68
2023-01-25T22:14:44.829Z,5.93
2023-01-25T22:19:48.417Z,6.28
2023-01-25T22:24:52.421Z,5.53
2023-01-25T22:29:57.416Z,5.95
2023-01-25T22:35:01.003Z,5.80
2023-01-25T22:40:05.600Z,6.13
2023-01-25T22:45:11.326Z,5.03
2023-01-25T22:50:15.149Z,5.37
2023-01-25T22:55:18.799Z,6.15
2023-01-25T23:00:24.171Z,5.62
2023-01-25T23:05:28.610Z,7.12
2023-01-25T23:10:32.373Z,5.28
2023-01-25T23:15:37.679Z,6.55
2023-01-25T23:20:41.365Z,6.00
2023-01-25T23:25:47.836Z,6.57
